sensor_id;sensor_type;location;lat;lon;timestamp;P1;durP1;ratioP1;P2;durP2;ratioP2
13764;SDS011;6953;48.810;9.204;2022-09-03T00:01:36;0.20;;;0.20;;
13764;SDS011;6953;48.810;9.204;2022-09-03T00:04:11;0.30;;;0.30;;
13764;SDS011;6953;48.810;9.204;2022-09-03T00:06:44;0.30;;;0.30;;
13764;SDS011;6953;48.810;9.204;2022-09-03T00:09:25;0.20;;;0.20;;
13764;SDS011;6953;48.810;9.204;2022-09-03T00:14:38;0.20;;;0.20;;
13764;SDS011;6953;48.810;9.204;2022-09-03T00:17:13;0.30;;;0.30;;
13764;SDS011;6953;48.810;9.204;2022-09-03T00:20:05;0.20;;;0.20;;
13764;SDS011;6953;48.810;9.204;2022-09-03T00:23:10;0.30;;;0.30;;
13764;SDS011;6953;48.810;9.204;2022-09-03T00:25:43;0.30;;;0.30;;
13764;SDS011;6953;48.810;9.204;2022-09-03T00:28:16;0.30;;;0.30;;
13764;SDS011;6953;48.810;9.204;2022-09-03T00:30:49;0.30;;;0.30;;
13764;SDS011;6953;48.810;9.204;2022-09-03T00:33:21;0.30;;;0.30;;
13764;SDS011;6953;48.810;9.204;2022-09-03T00:38:28;0.20;;;0.20;;
13764;SDS011;6953;48.810;9.204;2022-09-03T00:49:50;0.20;;;0.20;;
13764;SDS011;6953;48.810;9.204;2022-09-03T00:52:23;0.30;;;0.30;;
13764;SDS011;6953;48.810;9.204;2022-09-03T00:58:07;0.30;;;0.30;;
13764;SDS011;6953;48.810;9.204;2022-09-03T01:00:56;0.20;;;0.20;;
13764;SDS011;6953;48.810;9.204;2022-09-03T01:25:59;0.20;;;0.20;;
13764;SDS011;6953;48.810;9.204;2022-09-03T01:37:27;0.20;;;0.20;;
13764;SDS011;6953;48.810;9.204;2022-09-03T01:45:54;0.20;;;0.20;;
13764;SDS011;6953;48.810;9.204;2022-09-03T01:51:23;0.20;;;0.20;;
13764;SDS011;6953;48.810;9.204;2022-09-03T01:53:59;0.20;;;0.20;;
13764;SDS011;6953;48.810;9.204;2022-09-03T01:56:30;0.20;;;0.20;;
13764;SDS011;6953;48.810;9.204;2022-09-03T02:02:07;0.20;;;0.20;;
13764;SDS011;6953;48.810;9.204;2022-09-03T02:04:52;0.30;;;0.30;;
13764;SDS011;6953;48.810;9.204;2022-09-03T02:07:23;0.30;;;0.30;;
13764;SDS011;6953;48.810;9.204;2022-09-03T02:09:51;0.28;;;0.28;;
13764;SDS011;6953;48.810;9.204;2022-09-03T02:12:16;0.28;;;0.28;;
13764;SDS011;6953;48.810;9.204;2022-09-03T02:14:44;0.20;;;0.20;;
13764;SDS011;6953;48.810;9.204;2022-09-03T02:17:10;0.20;;;0.20;;
13764;SDS011;6953;48.810;9.204;2022-09-03T02:19:36;0.20;;;0.20;;
13764;SDS011;6953;48.810;9.204;2022-09-03T02:22:03;0.30;;;0.30;;
13764;SDS011;6953;48.810;9.204;2022-09-03T02:24:29;0.20;;;0.20;;
13764;SDS011;6953;48.810;9.204;2022-09-03T02:26:55;0.20;;;0.20;;
13764;SDS011;6953;48.810;9.204;2022-09-03T02:29:21;0.30;;;0.30;;
13764;SDS011;6953;48.810;9.204;2022-09-03T02:31:46;0.30;;;0.30;;
13764;SDS011;6953;48.810;9.204;2022-09-03T02:34:12;0.25;;;0.25;;
13764;SDS011;6953;48.810;9.204;2022-09-03T02:36:38;0.20;;;0.20;;
13764;SDS011;6953;48.810;9.204;2022-09-03T02:39:06;0.22;;;0.22;;
13764;SDS011;6953;48.810;9.204;2022-09-03T02:41:32;0.30;;;0.30;;
13764;SDS011;6953;48.810;9.204;2022-09-03T02:44:06;0.20;;;0.20;;
13764;SDS011;6953;48.810;9.204;2022-09-03T02:46:38;0.30;;;0.30;;
13764;SDS011;6953;48.810;9.204;2022-09-03T02:49:07;0.20;;;0.20;;
13764;SDS011;6953;48.810;9.204;2022-09-03T02:51:34;0.28;;;0.28;;
13764;SDS011;6953;48.810;9.204;2022-09-03T02:54:04;0.30;;;0.30;;
13764;SDS011;6953;48.810;9.204;2022-09-03T02:56:30;0.30;;;0.30;;
13764;SDS011;6953;48.810;9.204;2022-09-03T02:58:56;0.30;;;0.30;;
13764;SDS011;6953;48.810;9.204;2022-09-03T03:01:21;0.30;;;0.30;;
13764;SDS011;6953;48.810;9.204;2022-09-03T03:03:47;0.30;;;0.30;;
13764;SDS011;6953;48.810;9.204;2022-09-03T03:06:12;0.30;;;0.30;;
13764;SDS011;6953;48.810;9.204;2022-09-03T03:08:38;0.30;;;0.30;;
13764;SDS011;6953;48.810;9.204;2022-09-03T03:11:04;0.20;;;0.20;;
13764;SDS011;6953;48.810;9.204;2022-09-03T03:13:30;0.30;;;0.30;;
13764;SDS011;6953;48.810;9.204;2022-09-03T03:16:00;0.28;;;0.28;;
13764;SDS011;6953;48.810;9.204;2022-09-03T03:18:30;0.30;;;0.30;;
13764;SDS011;6953;48.810;9.204;2022-09-03T03:20:55;0.30;;;0.30;;
13764;SDS011;6953;48.810;9.204;2022-09-03T03:23:21;0.30;;;0.30;;
13764;SDS011;6953;48.810;9.204;2022-09-03T03:25:46;0.30;;;0.30;;
13764;SDS011;6953;48.810;9.204;2022-09-03T03:28:12;0.30;;;0.30;;
13764;SDS011;6953;48.810;9.204;2022-09-03T03:30:38;0.30;;;0.30;;
13764;SDS011;6953;48.810;9.204;2022-09-03T03:33:04;0.30;;;0.30;;
13764;SDS011;6953;48.810;9.204;2022-09-03T03:35:30;0.35;;;0.35;;
13764;SDS011;6953;48.810;9.204;2022-09-03T03:37:57;0.30;;;0.30;;
13764;SDS011;6953;48.810;9.204;2022-09-03T03:40:23;0.30;;;0.30;;
13764;SDS011;6953;48.810;9.204;2022-09-03T03:42:49;0.30;;;0.30;;
13764;SDS011;6953;48.810;9.204;2022-09-03T03:45:14;0.30;;;0.30;;
13764;SDS011;6953;48.810;9.204;2022-09-03T03:47:40;0.22;;;0.22;;
13764;SDS011;6953;48.810;9.204;2022-09-03T03:50:06;0.22;;;0.22;;
13764;SDS011;6953;48.810;9.204;2022-09-03T03:52:31;0.30;;;0.30;;
13764;SDS011;6953;48.810;9.204;2022-09-03T03:54:56;0.35;;;0.35;;
13764;SDS011;6953;48.810;9.204;2022-09-03T03:57:22;0.30;;;0.30;;
13764;SDS011;6953;48.810;9.204;2022-09-03T03:59:48;0.30;;;0.30;;
13764;SDS011;6953;48.810;9.204;2022-09-03T04:02:13;0.30;;;0.30;;
13764;SDS011;6953;48.810;9.204;2022-09-03T04:04:40;0.30;;;0.30;;
13764;SDS011;6953;48.810;9.204;2022-09-03T04:07:05;0.30;;;0.30;;
13764;SDS011;6953;48.810;9.204;2022-09-03T04:09:31;0.28;;;0.28;;
13764;SDS011;6953;48.810;9.204;2022-09-03T04:11:57;0.30;;;0.30;;
13764;SDS011;6953;48.810;9.204;2022-09-03T04:14:25;0.30;;;0.30;;
13764;SDS011;6953;48.810;9.204;2022-09-03T04:16:52;0.20;;;0.20;;
13764;SDS011;6953;48.810;9.204;2022-09-03T04:19:19;0.28;;;0.28;;
13764;SDS011;6953;48.810;9.204;2022-09-03T04:21:45;0.30;;;0.30;;
13764;SDS011;6953;48.810;9.204;2022-09-03T04:24:10;0.20;;;0.20;;
13764;SDS011;6953;48.810;9.204;2022-09-03T04:26:36;0.28;;;0.28;;
13764;SDS011;6953;48.810;9.204;2022-09-03T04:29:03;0.30;;;0.30;;
13764;SDS011;6953;48.810;9.204;2022-09-03T04:31:30;0.30;;;0.30;;
13764;SDS011;6953;48.810;9.204;2022-09-03T04:33:56;0.30;;;0.30;;
13764;SDS011;6953;48.810;9.204;2022-09-03T04:36:23;0.20;;;0.20;;
13764;SDS011;6953;48.810;9.204;2022-09-03T04:38:51;0.30;;;0.30;;
13764;SDS011;6953;48.810;9.204;2022-09-03T04:41:22;0.30;;;0.30;;
13764;SDS011;6953;48.810;9.204;2022-09-03T04:43:50;0.30;;;0.30;;
13764;SDS011;6953;48.810;9.204;2022-09-03T04:46:16;0.30;;;0.30;;
13764;SDS011;6953;48.810;9.204;2022-09-03T04:48:42;0.30;;;0.30;;
13764;SDS011;6953;48.810;9.204;2022-09-03T04:51:11;0.30;;;0.30;;
13764;SDS011;6953;48.810;9.204;2022-09-03T04:53:42;0.30;;;0.30;;
13764;SDS011;6953;48.810;9.204;2022-09-03T04:58:38;0.30;;;0.30;;
13764;SDS011;6953;48.810;9.204;2022-09-03T05:01:07;0.30;;;0.30;;
13764;SDS011;6953;48.810;9.204;2022-09-03T05:03:33;0.30;;;0.30;;
13764;SDS011;6953;48.810;9.204;2022-09-03T05:05:58;0.30;;;0.30;;
13764;SDS011;6953;48.810;9.204;2022-09-03T05:08:24;0.20;;;0.20;;
13764;SDS011;6953;48.810;9.204;2022-09-03T05:10:56;0.20;;;0.20;;
13764;SDS011;6953;48.810;9.204;2022-09-03T05:13:24;0.20;;;0.20;;
13764;SDS011;6953;48.810;9.204;2022-09-03T05:15:49;0.20;;;0.20;;
13764;SDS011;6953;48.810;9.204;2022-09-03T05:18:14;0.30;;;0.30;;
13764;SDS011;6953;48.810;9.204;2022-09-03T05:20:40;0.20;;;0.20;;
13764;SDS011;6953;48.810;9.204;2022-09-03T05:23:05;0.25;;;0.25;;
13764;SDS011;6953;48.810;9.204;2022-09-03T05:25:31;0.20;;;0.20;;
13764;SDS011;6953;48.810;9.204;2022-09-03T05:27:56;0.20;;;0.20;;
13764;SDS011;6953;48.810;9.204;2022-09-03T05:30:22;0.30;;;0.30;;
13764;SDS011;6953;48.810;9.204;2022-09-03T05:32:49;0.30;;;0.30;;
13764;SDS011;6953;48.810;9.204;2022-09-03T05:35:15;0.30;;;0.30;;
13764;SDS011;6953;48.810;9.204;2022-09-03T05:37:40;0.20;;;0.20;;
13764;SDS011;6953;48.810;9.204;2022-09-03T05:40:06;0.20;;;0.20;;
13764;SDS011;6953;48.810;9.204;2022-09-03T05:42:34;0.20;;;0.20;;
13764;SDS011;6953;48.810;9.204;2022-09-03T05:45:02;0.25;;;0.25;;
13764;SDS011;6953;48.810;9.204;2022-09-03T05:47:29;0.20;;;0.20;;
13764;SDS011;6953;48.810;9.204;2022-09-03T05:49:55;0.20;;;0.20;;
13764;SDS011;6953;48.810;9.204;2022-09-03T05:52:21;0.20;;;0.20;;
13764;SDS011;6953;48.810;9.204;2022-09-03T05:54:47;0.20;;;0.20;;
13764;SDS011;6953;48.810;9.204;2022-09-03T05:57:12;0.30;;;0.30;;
13764;SDS011;6953;48.810;9.204;2022-09-03T05:59:38;0.20;;;0.20;;
13764;SDS011;6953;48.810;9.204;2022-09-03T06:02:03;0.25;;;0.25;;
13764;SDS011;6953;48.810;9.204;2022-09-03T06:04:29;0.20;;;0.20;;
13764;SDS011;6953;48.810;9.204;2022-09-03T06:06:54;0.20;;;0.20;;
13764;SDS011;6953;48.810;9.204;2022-09-03T06:09:20;0.20;;;0.20;;
13764;SDS011;6953;48.810;9.204;2022-09-03T06:11:46;0.20;;;0.20;;
13764;SDS011;6953;48.810;9.204;2022-09-03T06:14:14;0.30;;;0.30;;
13764;SDS011;6953;48.810;9.204;2022-09-03T06:16:41;0.20;;;0.20;;
13764;SDS011;6953;48.810;9.204;2022-09-03T06:19:08;0.30;;;0.30;;
13764;SDS011;6953;48.810;9.204;2022-09-03T06:21:35;0.20;;;0.20;;
13764;SDS011;6953;48.810;9.204;2022-09-03T06:24:04;0.20;;;0.20;;
13764;SDS011;6953;48.810;9.204;2022-09-03T06:26:30;0.20;;;0.20;;
13764;SDS011;6953;48.810;9.204;2022-09-03T06:28:55;0.20;;;0.20;;
13764;SDS011;6953;48.810;9.204;2022-09-03T06:31:21;0.20;;;0.20;;
13764;SDS011;6953;48.810;9.204;2022-09-03T06:33:47;0.20;;;0.20;;
13764;SDS011;6953;48.810;9.204;2022-09-03T06:36:14;0.20;;;0.20;;
13764;SDS011;6953;48.810;9.204;2022-09-03T06:38:42;0.20;;;0.20;;
13764;SDS011;6953;48.810;9.204;2022-09-03T06:41:09;0.20;;;0.20;;
13764;SDS011;6953;48.810;9.204;2022-09-03T06:43:38;0.20;;;0.20;;
13764;SDS011;6953;48.810;9.204;2022-09-03T06:46:06;0.25;;;0.25;;
13764;SDS011;6953;48.810;9.204;2022-09-03T06:48:34;0.20;;;0.20;;
13764;SDS011;6953;48.810;9.204;2022-09-03T06:51:04;0.17;;;0.17;;
13764;SDS011;6953;48.810;9.204;2022-09-03T06:53:40;0.30;;;0.30;;
13764;SDS011;6953;48.810;9.204;2022-09-03T06:56:08;0.20;;;0.20;;
13764;SDS011;6953;48.810;9.204;2022-09-03T06:58:36;0.20;;;0.20;;
13764;SDS011;6953;48.810;9.204;2022-09-03T07:01:05;0.20;;;0.20;;
13764;SDS011;6953;48.810;9.204;2022-09-03T07:03:33;0.20;;;0.20;;
13764;SDS011;6953;48.810;9.204;2022-09-03T07:06:02;0.20;;;0.20;;
13764;SDS011;6953;48.810;9.204;2022-09-03T07:08:30;0.20;;;0.20;;
13764;SDS011;6953;48.810;9.204;2022-09-03T07:10:57;0.20;;;0.20;;
13764;SDS011;6953;48.810;9.204;2022-09-03T07:13:24;0.20;;;0.20;;
13764;SDS011;6953;48.810;9.204;2022-09-03T07:15:59;0.20;;;0.20;;
13764;SDS011;6953;48.810;9.204;2022-09-03T07:18:26;0.20;;;0.20;;
13764;SDS011;6953;48.810;9.204;2022-09-03T07:20:51;0.20;;;0.20;;
13764;SDS011;6953;48.810;9.204;2022-09-03T07:23:16;0.20;;;0.20;;
13764;SDS011;6953;48.810;9.204;2022-09-03T07:25:42;0.20;;;0.20;;
13764;SDS011;6953;48.810;9.204;2022-09-03T07:28:07;0.20;;;0.20;;
13764;SDS011;6953;48.810;9.204;2022-09-03T07:30:33;0.20;;;0.20;;
13764;SDS011;6953;48.810;9.204;2022-09-03T07:32:58;0.20;;;0.20;;
13764;SDS011;6953;48.810;9.204;2022-09-03T07:35:28;0.20;;;0.20;;
13764;SDS011;6953;48.810;9.204;2022-09-03T07:37:53;0.20;;;0.20;;
13764;SDS011;6953;48.810;9.204;2022-09-03T07:40:19;0.20;;;0.20;;
13764;SDS011;6953;48.810;9.204;2022-09-03T07:42:44;0.20;;;0.20;;
13764;SDS011;6953;48.810;9.204;2022-09-03T07:45:12;0.17;;;0.17;;
13764;SDS011;6953;48.810;9.204;2022-09-03T07:47:44;0.15;;;0.15;;
13764;SDS011;6953;48.810;9.204;2022-09-03T07:50:11;0.10;;;0.10;;
13764;SDS011;6953;48.810;9.204;2022-09-03T07:52:36;0.10;;;0.10;;
13764;SDS011;6953;48.810;9.204;2022-09-03T07:55:02;0.10;;;0.10;;
13764;SDS011;6953;48.810;9.204;2022-09-03T07:57:28;0.20;;;0.20;;
13764;SDS011;6953;48.810;9.204;2022-09-03T07:59:54;0.10;;;0.10;;
13764;SDS011;6953;48.810;9.204;2022-09-03T08:02:19;0.20;;;0.20;;
13764;SDS011;6953;48.810;9.204;2022-09-03T08:04:45;0.10;;;0.10;;
13764;SDS011;6953;48.810;9.204;2022-09-03T08:07:10;0.20;;;0.20;;
13764;SDS011;6953;48.810;9.204;2022-09-03T08:09:36;0.20;;;0.20;;
13764;SDS011;6953;48.810;9.204;2022-09-03T08:12:02;0.10;;;0.10;;
13764;SDS011;6953;48.810;9.204;2022-09-03T08:14:27;0.10;;;0.10;;
13764;SDS011;6953;48.810;9.204;2022-09-03T08:16:55;0.10;;;0.10;;
13764;SDS011;6953;48.810;9.204;2022-09-03T08:19:23;0.10;;;0.10;;
13764;SDS011;6953;48.810;9.204;2022-09-03T08:21:49;0.10;;;0.10;;
13764;SDS011;6953;48.810;9.204;2022-09-03T08:24:15;0.10;;;0.10;;
13764;SDS011;6953;48.810;9.204;2022-09-03T08:26:42;0.10;;;0.10;;
13764;SDS011;6953;48.810;9.204;2022-09-03T08:29:07;0.10;;;0.10;;
13764;SDS011;6953;48.810;9.204;2022-09-03T08:31:33;0.10;;;0.10;;
13764;SDS011;6953;48.810;9.204;2022-09-03T08:34:01;0.10;;;0.10;;
13764;SDS011;6953;48.810;9.204;2022-09-03T08:36:29;0.20;;;0.20;;
13764;SDS011;6953;48.810;9.204;2022-09-03T08:38:55;0.10;;;0.10;;
13764;SDS011;6953;48.810;9.204;2022-09-03T08:47:04;0.10;;;0.10;;
13764;SDS011;6953;48.810;9.204;2022-09-03T08:52:03;0.10;;;0.10;;
13764;SDS011;6953;48.810;9.204;2022-09-03T08:54:32;0.00;;;0.00;;
13764;SDS011;6953;48.810;9.204;2022-09-03T08:57:01;0.00;;;0.00;;
13764;SDS011;6953;48.810;9.204;2022-09-03T08:59:30;0.00;;;0.00;;
13764;SDS011;6953;48.810;9.204;2022-09-03T09:07:49;0.10;;;0.10;;
13764;SDS011;6953;48.810;9.204;2022-09-03T09:10:26;0.10;;;0.10;;
13764;SDS011;6953;48.810;9.204;2022-09-03T09:18:59;0.15;;;0.15;;
13764;SDS011;6953;48.810;9.204;2022-09-03T09:21:14;0.15;;;0.15;;
13764;SDS011;6953;48.810;9.204;2022-09-03T09:23:48;0.13;;;0.13;;
13764;SDS011;6953;48.810;9.204;2022-09-03T09:26:18;0.10;;;0.10;;
13764;SDS011;6953;48.810;9.204;2022-09-03T09:28:46;0.10;;;0.10;;
13764;SDS011;6953;48.810;9.204;2022-09-03T09:31:16;0.05;;;0.05;;
13764;SDS011;6953;48.810;9.204;2022-09-03T09:33:43;0.20;;;0.20;;
13764;SDS011;6953;48.810;9.204;2022-09-03T09:36:11;0.20;;;0.20;;
13764;SDS011;6953;48.810;9.204;2022-09-03T09:38:41;0.20;;;0.20;;
13764;SDS011;6953;48.810;9.204;2022-09-03T09:41:11;0.10;;;0.10;;
13764;SDS011;6953;48.810;9.204;2022-09-03T09:43:39;0.10;;;0.10;;
13764;SDS011;6953;48.810;9.204;2022-09-03T09:46:11;0.05;;;0.05;;
13764;SDS011;6953;48.810;9.204;2022-09-03T09:48:46;0.10;;;0.10;;
13764;SDS011;6953;48.810;9.204;2022-09-03T09:51:22;0.10;;;0.10;;
13764;SDS011;6953;48.810;9.204;2022-09-03T09:53:59;0.00;;;0.00;;
13764;SDS011;6953;48.810;9.204;2022-09-03T09:56:25;0.00;;;0.00;;
13764;SDS011;6953;48.810;9.204;2022-09-03T09:59:06;0.00;;;0.00;;
13764;SDS011;6953;48.810;9.204;2022-09-03T10:01:34;0.00;;;0.00;;
13764;SDS011;6953;48.810;9.204;2022-09-03T10:04:13;0.00;;;0.00;;
13764;SDS011;6953;48.810;9.204;2022-09-03T10:06:52;0.00;;;0.00;;
13764;SDS011;6953;48.810;9.204;2022-09-03T10:09:22;0.10;;;0.10;;
13764;SDS011;6953;48.810;9.204;2022-09-03T10:15:09;0.00;;;0.00;;
13764;SDS011;6953;48.810;9.204;2022-09-03T10:20:38;0.10;;;0.10;;
13764;SDS011;6953;48.810;9.204;2022-09-03T10:23:24;0.10;;;0.10;;
13764;SDS011;6953;48.810;9.204;2022-09-03T10:28:38;0.10;;;0.10;;
13764;SDS011;6953;48.810;9.204;2022-09-03T10:31:14;0.10;;;0.10;;
13764;SDS011;6953;48.810;9.204;2022-09-03T10:33:52;0.10;;;0.10;;
13764;SDS011;6953;48.810;9.204;2022-09-03T10:42:43;0.10;;;0.10;;
13764;SDS011;6953;48.810;9.204;2022-09-03T10:56:10;0.00;;;0.00;;
13764;SDS011;6953;48.810;9.204;2022-09-03T11:00:38;0.10;;;0.10;;
13764;SDS011;6953;48.810;9.204;2022-09-03T11:06:28;0.10;;;0.10;;
13764;SDS011;6953;48.810;9.204;2022-09-03T11:09:21;0.10;;;0.10;;
13764;SDS011;6953;48.810;9.204;2022-09-03T11:12:04;0.10;;;0.10;;
13764;SDS011;6953;48.810;9.204;2022-09-03T11:14:41;0.10;;;0.10;;
13764;SDS011;6953;48.810;9.204;2022-09-03T11:17:12;0.10;;;0.10;;
13764;SDS011;6953;48.810;9.204;2022-09-03T11:19:47;0.10;;;0.10;;
13764;SDS011;6953;48.810;9.204;2022-09-03T11:22:17;0.10;;;0.10;;
13764;SDS011;6953;48.810;9.204;2022-09-03T11:24:45;0.10;;;0.10;;
13764;SDS011;6953;48.810;9.204;2022-09-03T11:27:32;0.10;;;0.10;;
13764;SDS011;6953;48.810;9.204;2022-09-03T11:30:06;0.10;;;0.10;;
13764;SDS011;6953;48.810;9.204;2022-09-03T11:32:42;0.10;;;0.10;;
13764;SDS011;6953;48.810;9.204;2022-09-03T11:37:57;0.10;;;0.10;;
13764;SDS011;6953;48.810;9.204;2022-09-03T11:40:31;0.10;;;0.10;;
13764;SDS011;6953;48.810;9.204;2022-09-03T11:45:59;0.10;;;0.10;;
13764;SDS011;6953;48.810;9.204;2022-09-03T11:48:29;0.20;;;0.20;;
13764;SDS011;6953;48.810;9.204;2022-09-03T11:51:00;0.10;;;0.10;;
13764;SDS011;6953;48.810;9.204;2022-09-03T11:53:31;0.20;;;0.20;;
13764;SDS011;6953;48.810;9.204;2022-09-03T11:55:59;0.10;;;0.10;;
13764;SDS011;6953;48.810;9.204;2022-09-03T11:58:31;0.10;;;0.10;;
13764;SDS011;6953;48.810;9.204;2022-09-03T12:01:13;0.20;;;0.20;;
13764;SDS011;6953;48.810;9.204;2022-09-03T12:03:52;0.10;;;0.10;;
13764;SDS011;6953;48.810;9.204;2022-09-03T12:17:56;0.20;;;0.20;;
13764;SDS011;6953;48.810;9.204;2022-09-03T12:20:46;0.20;;;0.20;;
13764;SDS011;6953;48.810;9.204;2022-09-03T12:23:39;0.10;;;0.10;;
13764;SDS011;6953;48.810;9.204;2022-09-03T12:26:15;0.00;;;0.00;;
13764;SDS011;6953;48.810;9.204;2022-09-03T12:28:50;0.10;;;0.10;;
13764;SDS011;6953;48.810;9.204;2022-09-03T12:31:19;0.10;;;0.10;;
13764;SDS011;6953;48.810;9.204;2022-09-03T12:33:51;0.10;;;0.10;;
13764;SDS011;6953;48.810;9.204;2022-09-03T12:39:15;0.00;;;0.00;;
13764;SDS011;6953;48.810;9.204;2022-09-03T12:44:26;0.10;;;0.10;;
13764;SDS011;6953;48.810;9.204;2022-09-03T12:47:05;0.10;;;0.10;;
13764;SDS011;6953;48.810;9.204;2022-09-03T12:49:38;0.10;;;0.10;;
13764;SDS011;6953;48.810;9.204;2022-09-03T12:52:11;0.10;;;0.10;;
13764;SDS011;6953;48.810;9.204;2022-09-03T12:54:40;0.10;;;0.10;;
13764;SDS011;6953;48.810;9.204;2022-09-03T12:57:13;0.10;;;0.10;;
13764;SDS011;6953;48.810;9.204;2022-09-03T12:59:44;0.20;;;0.20;;
13764;SDS011;6953;48.810;9.204;2022-09-03T13:02:19;0.20;;;0.20;;
13764;SDS011;6953;48.810;9.204;2022-09-03T13:04:50;0.20;;;0.20;;
13764;SDS011;6953;48.810;9.204;2022-09-03T13:07:21;0.20;;;0.20;;
13764;SDS011;6953;48.810;9.204;2022-09-03T13:10:24;0.20;;;0.20;;
13764;SDS011;6953;48.810;9.204;2022-09-03T13:12:56;0.20;;;0.20;;
13764;SDS011;6953;48.810;9.204;2022-09-03T13:15:24;0.20;;;0.20;;
13764;SDS011;6953;48.810;9.204;2022-09-03T13:26:26;0.20;;;0.20;;
13764;SDS011;6953;48.810;9.204;2022-09-03T13:31:30;0.20;;;0.20;;
13764;SDS011;6953;48.810;9.204;2022-09-03T13:34:41;0.10;;;0.10;;
13764;SDS011;6953;48.810;9.204;2022-09-03T13:37:05;0.15;;;0.15;;
13764;SDS011;6953;48.810;9.204;2022-09-03T13:42:08;0.20;;;0.20;;
13764;SDS011;6953;48.810;9.204;2022-09-03T13:44:41;0.13;;;0.13;;
13764;SDS011;6953;48.810;9.204;2022-09-03T13:47:19;0.10;;;0.10;;
13764;SDS011;6953;48.810;9.204;2022-09-03T13:50:16;0.15;;;0.15;;
13764;SDS011;6953;48.810;9.204;2022-09-03T14:04:24;0.20;;;0.20;;
13764;SDS011;6953;48.810;9.204;2022-09-03T14:07:02;0.20;;;0.20;;
13764;SDS011;6953;48.810;9.204;2022-09-03T14:12:52;0.20;;;0.20;;
13764;SDS011;6953;48.810;9.204;2022-09-03T14:15:50;0.30;;;0.30;;
13764;SDS011;6953;48.810;9.204;2022-09-03T14:20:55;0.30;;;0.30;;
13764;SDS011;6953;48.810;9.204;2022-09-03T14:25:56;0.28;;;0.28;;
13764;SDS011;6953;48.810;9.204;2022-09-03T14:28:34;0.30;;;0.30;;
13764;SDS011;6953;48.810;9.204;2022-09-03T14:36:20;0.30;;;0.30;;
13764;SDS011;6953;48.810;9.204;2022-09-03T14:39:22;0.28;;;0.28;;
13764;SDS011;6953;48.810;9.204;2022-09-03T14:42:17;0.30;;;0.30;;
13764;SDS011;6953;48.810;9.204;2022-09-03T15:01:28;0.30;;;0.30;;
13764;SDS011;6953;48.810;9.204;2022-09-03T15:15:04;0.25;;;0.25;;
13764;SDS011;6953;48.810;9.204;2022-09-03T15:20:31;0.30;;;0.30;;
13764;SDS011;6953;48.810;9.204;2022-09-03T15:23:08;0.30;;;0.30;;
13764;SDS011;6953;48.810;9.204;2022-09-03T15:31:26;0.25;;;0.25;;
13764;SDS011;6953;48.810;9.204;2022-09-03T15:33:59;0.20;;;0.20;;
13764;SDS011;6953;48.810;9.204;2022-09-03T15:36:40;0.20;;;0.20;;
13764;SDS011;6953;48.810;9.204;2022-09-03T15:39:19;0.20;;;0.20;;
13764;SDS011;6953;48.810;9.204;2022-09-03T15:41:55;0.20;;;0.20;;
13764;SDS011;6953;48.810;9.204;2022-09-03T15:44:23;0.20;;;0.20;;
13764;SDS011;6953;48.810;9.204;2022-09-03T15:46:58;0.20;;;0.20;;
13764;SDS011;6953;48.810;9.204;2022-09-03T15:54:55;0.20;;;0.20;;
13764;SDS011;6953;48.810;9.204;2022-09-03T15:57:27;0.20;;;0.20;;
13764;SDS011;6953;48.810;9.204;2022-09-03T16:00:16;0.20;;;0.20;;
13764;SDS011;6953;48.810;9.204;2022-09-03T16:05:47;0.20;;;0.20;;
13764;SDS011;6953;48.810;9.204;2022-09-03T16:11:38;0.20;;;0.20;;
13764;SDS011;6953;48.810;9.204;2022-09-03T16:14:14;0.30;;;0.30;;
13764;SDS011;6953;48.810;9.204;2022-09-03T16:22:36;0.20;;;0.20;;
13764;SDS011;6953;48.810;9.204;2022-09-03T16:43:56;0.30;;;0.30;;
13764;SDS011;6953;48.810;9.204;2022-09-03T16:55:05;0.20;;;0.20;;
13764;SDS011;6953;48.810;9.204;2022-09-03T17:00:40;0.20;;;0.20;;
13764;SDS011;6953;48.810;9.204;2022-09-03T17:08:50;0.30;;;0.30;;
13764;SDS011;6953;48.810;9.204;2022-09-03T17:14:21;0.30;;;0.30;;
13764;SDS011;6953;48.810;9.204;2022-09-03T17:17:08;0.30;;;0.30;;
13764;SDS011;6953;48.810;9.204;2022-09-03T17:22:55;0.20;;;0.20;;
13764;SDS011;6953;48.810;9.204;2022-09-03T17:25:31;0.30;;;0.30;;
13764;SDS011;6953;48.810;9.204;2022-09-03T17:30:38;0.20;;;0.20;;
13764;SDS011;6953;48.810;9.204;2022-09-03T17:33:22;0.30;;;0.30;;
13764;SDS011;6953;48.810;9.204;2022-09-03T17:38:58;0.30;;;0.30;;
13764;SDS011;6953;48.810;9.204;2022-09-03T17:41:53;0.30;;;0.30;;
13764;SDS011;6953;48.810;9.204;2022-09-03T17:49:47;0.20;;;0.20;;
13764;SDS011;6953;48.810;9.204;2022-09-03T17:55:01;0.30;;;0.30;;
13764;SDS011;6953;48.810;9.204;2022-09-03T17:57:49;0.30;;;0.30;;
13764;SDS011;6953;48.810;9.204;2022-09-03T18:00:22;0.30;;;0.30;;
13764;SDS011;6953;48.810;9.204;2022-09-03T18:05:45;0.30;;;0.30;;
13764;SDS011;6953;48.810;9.204;2022-09-03T18:10:59;0.30;;;0.30;;
13764;SDS011;6953;48.810;9.204;2022-09-03T18:13:52;0.30;;;0.30;;
13764;SDS011;6953;48.810;9.204;2022-09-03T18:16:40;0.30;;;0.30;;
13764;SDS011;6953;48.810;9.204;2022-09-03T18:21:59;0.30;;;0.30;;
13764;SDS011;6953;48.810;9.204;2022-09-03T18:24:56;0.30;;;0.30;;
13764;SDS011;6953;48.810;9.204;2022-09-03T18:27:49;0.30;;;0.30;;
13764;SDS011;6953;48.810;9.204;2022-09-03T18:30:40;0.30;;;0.30;;
13764;SDS011;6953;48.810;9.204;2022-09-03T18:33:24;0.30;;;0.30;;
13764;SDS011;6953;48.810;9.204;2022-09-03T18:36:09;0.30;;;0.30;;
13764;SDS011;6953;48.810;9.204;2022-09-03T18:38:55;0.20;;;0.20;;
13764;SDS011;6953;48.810;9.204;2022-09-03T18:54:30;0.40;;;0.40;;
13764;SDS011;6953;48.810;9.204;2022-09-03T18:57:31;0.30;;;0.30;;
13764;SDS011;6953;48.810;9.204;2022-09-03T19:00:34;0.30;;;0.30;;
13764;SDS011;6953;48.810;9.204;2022-09-03T19:03:35;0.30;;;0.30;;
13764;SDS011;6953;48.810;9.204;2022-09-03T19:21:29;0.30;;;0.30;;
13764;SDS011;6953;48.810;9.204;2022-09-03T19:24:20;0.22;;;0.22;;
13764;SDS011;6953;48.810;9.204;2022-09-03T19:30:42;0.20;;;0.20;;
13764;SDS011;6953;48.810;9.204;2022-09-03T19:33:46;0.30;;;0.30;;
13764;SDS011;6953;48.810;9.204;2022-09-03T19:46:18;0.25;;;0.25;;
13764;SDS011;6953;48.810;9.204;2022-09-03T19:52:04;0.40;;;0.40;;
13764;SDS011;6953;48.810;9.204;2022-09-03T19:54:53;0.30;;;0.30;;
13764;SDS011;6953;48.810;9.204;2022-09-03T19:57:40;0.40;;;0.40;;
13764;SDS011;6953;48.810;9.204;2022-09-03T20:00:26;0.40;;;0.40;;
13764;SDS011;6953;48.810;9.204;2022-09-03T20:03:12;0.40;;;0.40;;
13764;SDS011;6953;48.810;9.204;2022-09-03T20:05:57;0.30;;;0.30;;
13764;SDS011;6953;48.810;9.204;2022-09-03T20:08:42;0.40;;;0.40;;
13764;SDS011;6953;48.810;9.204;2022-09-03T20:11:32;0.30;;;0.30;;
13764;SDS011;6953;48.810;9.204;2022-09-03T20:13:58;0.40;;;0.40;;
13764;SDS011;6953;48.810;9.204;2022-09-03T20:16:48;0.45;;;0.45;;
13764;SDS011;6953;48.810;9.204;2022-09-03T20:19:23;0.30;;;0.30;;
13764;SDS011;6953;48.810;9.204;2022-09-03T20:22:30;0.40;;;0.40;;
13764;SDS011;6953;48.810;9.204;2022-09-03T20:30:21;0.30;;;0.30;;
13764;SDS011;6953;48.810;9.204;2022-09-03T20:52:14;0.40;;;0.40;;
13764;SDS011;6953;48.810;9.204;2022-09-03T20:57:39;0.30;;;0.30;;
13764;SDS011;6953;48.810;9.204;2022-09-03T21:00:14;0.40;;;0.40;;
13764;SDS011;6953;48.810;9.204;2022-09-03T21:05:42;0.30;;;0.30;;
13764;SDS011;6953;48.810;9.204;2022-09-03T21:24:44;0.40;;;0.40;;
13764;SDS011;6953;48.810;9.204;2022-09-03T21:27:18;0.30;;;0.30;;
13764;SDS011;6953;48.810;9.204;2022-09-03T21:30:04;0.30;;;0.30;;
13764;SDS011;6953;48.810;9.204;2022-09-03T21:32:34;0.40;;;0.40;;
13764;SDS011;6953;48.810;9.204;2022-09-03T21:38:05;0.30;;;0.30;;
13764;SDS011;6953;48.810;9.204;2022-09-03T21:40:34;0.30;;;0.30;;
13764;SDS011;6953;48.810;9.204;2022-09-03T21:43:07;0.30;;;0.30;;
13764;SDS011;6953;48.810;9.204;2022-09-03T21:45:43;0.30;;;0.30;;
13764;SDS011;6953;48.810;9.204;2022-09-03T21:48:15;0.30;;;0.30;;
13764;SDS011;6953;48.810;9.204;2022-09-03T21:50:50;0.30;;;0.30;;
13764;SDS011;6953;48.810;9.204;2022-09-03T21:53:34;0.30;;;0.30;;
13764;SDS011;6953;48.810;9.204;2022-09-03T21:56:14;0.30;;;0.30;;
13764;SDS011;6953;48.810;9.204;2022-09-03T22:04:25;0.35;;;0.35;;
13764;SDS011;6953;48.810;9.204;2022-09-03T22:14:58;0.40;;;0.40;;